Coupeville, Washington
Current Conditions -  °F | °C
As of 2:56 AM on Sunday 23 Nov 2014 (Local Time) from KNUW Reporting Station
Light Rain Light Rain  
Wind Chill: 44°   Ceiling: 3000
Heat Index: 48°   Visibility: 9mi
Dew Point: 44°   Wind: 9mph
Humidity: 86%   Direction: 130°SE
Pressure: 30.11"   Gusts: NA
Location:  48.22°N, 122.69°W
Report Text: KNUW 231056Z 13008KT 9SM -RA BKN030 BKN040 OVC080 09/07 A3011 RMK AO2 SLP201 P0004 T00890067 $
Loading
Personal Weather Stations






























Interactive Weather Map New forecast layout! Learn more

10-Day Weather Forecast

Advertisements
Track Severe Weather on mobile